Waukegan, IL (60079)

2:08 AM CST on December 06, 2016 (GMT -0600)
North Side, Waukegan | | Change Station

Elev 659 ft 42.37 °N, 87.83 °W | Updated 28 seconds ago

Overcast
Overcast
38.7 °F
Feels Like 39 °F
N
2.5
Wind Variable Wind from SE
Gusts 2.5 mph

Today
High -- | Low -- °F
--% Chance of Precip.
Yesterday
High -- | Low -- °F
Precip. -- in
Pressure 29.91 in
Visibility 7.0 miles
Clouds Overcast 1100 ft
Windchill 39 °F
Dew Point 34 °F
Humidity 85%
Rainfall 0.13 in
Snow Depth Not available.
7:06 AM 4:18 PM
Waxing Crescent, 39% visible
METAR KUGN 060755Z AUTO 14007KT 7SM OVC011 03/01 A2988 RMK AO2 SLP128 T00280011 TSNO
Pressure 29.91 in
Visibility 7.0 miles
Clouds Overcast 1100 ft
Windchill 39 °F
Dew Point 34 °F
Humidity 85%
Rainfall 0.13 in
Snow Depth Not available.
7:06 AM 4:18 PM
Waxing Crescent, 39% visible
METAR KUGN 060755Z AUTO 14007KT 7SM OVC011 03/01 A2988 RMK AO2 SLP128 T00280011 TSNO

10-Day Weather Forecast

Almanac

Astronomy

Dec. 06, 2016 Rise Set
Actual Time
Civil Twilight
Nautical Twilight
Astronomical Twilight
Moon
Length of Visible Light
Length of Day
Tomorrow will be .
, % of the Moon is Illuminated

Today's Extremes

State Highs State Lows

Community

WunderPhotos

Upload Photos

1,955,935 photos uploaded!

WunderBlog® & News

Nearby

Air Quality

  Air Quality AQ Index Pollutant
Not available.

Snow Depth

Station Depth Elevation

Earthquake Activity

City Distance Mag. Time & Date
Minimum magnitude displayed is 2.5.

Coastal Water Temperatures

Place Temperature

Stations

Nearby Weather Stations

Station Location Temp. Windchill Dew Point Humidity Wind Precip. Elev Updated Type
                   

Watches & Warnings

There are currently no watches in effect.